Mc Clellan Airfield Sacramento US
ICAO: KMCC
IATA: MCC
Category: Medium
Scheduled Services: No

Elevation: 77 ft
TransAlt. 18000 ft.

Airport Communications:
NORCAL APP/DEP:127.4
AWOS 3:109.2
USCG COMSTA SAN FRAN:312.3
USCG SACRAMENTO:167.9
PMSV METRO:34.46
CTAF/UNICOM:122.975

KMCC Zoom In..

If you have problems with the map follow the link
https://www.worldairports.se/pages/airport.php?
ICAO=KMCC

Runways:

(A) RW 16 length 10599 ft width 150 ft
ILS 109.70 / hdg 163

(B) RW 34 length 10599 ft width 150 ft
---- / hdg 343

Location; KMCC
Day. 18 / Time. 11.35 Zulu
* Altimeter: 30.36
* Temperature: 04° c. 39.2°f.
* Wind from: 000° Speed 00 kn.
Dewpoint: 04° c.
Visibility: 4 Statute Miles.
Clouds: Clear (automated report).
Conditions: Mist.

KMCC 181135Z AUTO 00000KT 4SM BR CLR 04/04 A3036 RMK AO2


Wind - Calm.

 
 
jpsmedia worldairports.se 2020   terms of use